sensor_id;sensor_type;location;lat;lon;timestamp;P1;durP1;ratioP1;P2;durP2;ratioP2
38513;SDS011;24282;48.400;10.808;2022-12-18T00:03:54;52.37;;;27.73;;
38513;SDS011;24282;48.400;10.808;2022-12-18T00:06:20;49.87;;;25.43;;
38513;SDS011;24282;48.400;10.808;2022-12-18T00:08:47;50.73;;;25.50;;
38513;SDS011;24282;48.400;10.808;2022-12-18T00:11:14;49.80;;;25.67;;
38513;SDS011;24282;48.400;10.808;2022-12-18T00:13:41;49.70;;;25.70;;
38513;SDS011;24282;48.400;10.808;2022-12-18T00:16:08;49.47;;;26.47;;
38513;SDS011;24282;48.400;10.808;2022-12-18T00:18:36;51.87;;;27.77;;
38513;SDS011;24282;48.400;10.808;2022-12-18T00:21:02;54.20;;;28.23;;
38513;SDS011;24282;48.400;10.808;2022-12-18T00:23:30;51.67;;;27.43;;
38513;SDS011;24282;48.400;10.808;2022-12-18T00:26:00;54.60;;;28.57;;
38513;SDS011;24282;48.400;10.808;2022-12-18T00:28:29;50.03;;;26.92;;
38513;SDS011;24282;48.400;10.808;2022-12-18T00:31:15;50.87;;;26.57;;
38513;SDS011;24282;48.400;10.808;2022-12-18T00:33:42;52.97;;;26.90;;
38513;SDS011;24282;48.400;10.808;2022-12-18T00:36:16;49.93;;;27.90;;
38513;SDS011;24282;48.400;10.808;2022-12-18T00:38:45;52.30;;;26.93;;
38513;SDS011;24282;48.400;10.808;2022-12-18T00:41:12;52.40;;;27.43;;
38513;SDS011;24282;48.400;10.808;2022-12-18T00:43:59;46.83;;;26.03;;
38513;SDS011;24282;48.400;10.808;2022-12-18T00:46:25;50.73;;;27.70;;
38513;SDS011;24282;48.400;10.808;2022-12-18T00:48:51;49.20;;;25.60;;
38513;SDS011;24282;48.400;10.808;2022-12-18T00:51:17;45.23;;;25.93;;
38513;SDS011;24282;48.400;10.808;2022-12-18T00:53:42;48.00;;;26.23;;
38513;SDS011;24282;48.400;10.808;2022-12-18T00:56:08;47.83;;;25.73;;
38513;SDS011;24282;48.400;10.808;2022-12-18T00:58:34;38.63;;;23.70;;
38513;SDS011;24282;48.400;10.808;2022-12-18T01:01:03;38.07;;;24.07;;
38513;SDS011;24282;48.400;10.808;2022-12-18T01:03:32;40.23;;;24.00;;
38513;SDS011;24282;48.400;10.808;2022-12-18T01:05:58;40.53;;;22.90;;
38513;SDS011;24282;48.400;10.808;2022-12-18T01:08:24;37.37;;;22.33;;
38513;SDS011;24282;48.400;10.808;2022-12-18T01:10:50;39.47;;;22.93;;
38513;SDS011;24282;48.400;10.808;2022-12-18T01:13:16;41.03;;;22.77;;
38513;SDS011;24282;48.400;10.808;2022-12-18T01:15:47;40.43;;;23.90;;
38513;SDS011;24282;48.400;10.808;2022-12-18T01:18:14;39.20;;;22.90;;
38513;SDS011;24282;48.400;10.808;2022-12-18T01:20:39;38.97;;;23.30;;
38513;SDS011;24282;48.400;10.808;2022-12-18T01:23:05;38.77;;;22.73;;
38513;SDS011;24282;48.400;10.808;2022-12-18T01:25:32;34.40;;;20.00;;
38513;SDS011;24282;48.400;10.808;2022-12-18T01:28:00;33.60;;;19.93;;
38513;SDS011;24282;48.400;10.808;2022-12-18T01:30:26;36.20;;;21.50;;
38513;SDS011;24282;48.400;10.808;2022-12-18T01:32:52;39.00;;;22.23;;
38513;SDS011;24282;48.400;10.808;2022-12-18T01:35:18;39.90;;;23.17;;
38513;SDS011;24282;48.400;10.808;2022-12-18T01:37:45;46.43;;;25.53;;
38513;SDS011;24282;48.400;10.808;2022-12-18T01:40:11;47.33;;;25.93;;
38513;SDS011;24282;48.400;10.808;2022-12-18T01:42:38;47.07;;;26.03;;
38513;SDS011;24282;48.400;10.808;2022-12-18T01:45:23;42.40;;;23.43;;
38513;SDS011;24282;48.400;10.808;2022-12-18T01:47:51;42.87;;;24.03;;
38513;SDS011;24282;48.400;10.808;2022-12-18T01:52:55;45.03;;;24.57;;
38513;SDS011;24282;48.400;10.808;2022-12-18T01:55:26;48.83;;;28.08;;
38513;SDS011;24282;48.400;10.808;2022-12-18T01:57:55;45.57;;;25.03;;
38513;SDS011;24282;48.400;10.808;2022-12-18T02:00:23;45.67;;;25.67;;
38513;SDS011;24282;48.400;10.808;2022-12-18T02:02:51;42.17;;;23.33;;
38513;SDS011;24282;48.400;10.808;2022-12-18T02:05:41;37.27;;;21.87;;
38513;SDS011;24282;48.400;10.808;2022-12-18T02:08:34;35.57;;;21.53;;
38513;SDS011;24282;48.400;10.808;2022-12-18T02:11:39;37.30;;;21.27;;
38513;SDS011;24282;48.400;10.808;2022-12-18T02:16:59;40.65;;;21.60;;
38513;SDS011;24282;48.400;10.808;2022-12-18T02:19:39;39.80;;;21.37;;
38513;SDS011;24282;48.400;10.808;2022-12-18T02:27:41;35.50;;;20.90;;
38513;SDS011;24282;48.400;10.808;2022-12-18T02:30:11;39.20;;;21.67;;
38513;SDS011;24282;48.400;10.808;2022-12-18T02:32:38;37.60;;;21.13;;
38513;SDS011;24282;48.400;10.808;2022-12-18T02:35:08;37.97;;;20.83;;
38513;SDS011;24282;48.400;10.808;2022-12-18T02:37:43;37.30;;;20.57;;
38513;SDS011;24282;48.400;10.808;2022-12-18T02:40:11;35.97;;;19.80;;
38513;SDS011;24282;48.400;10.808;2022-12-18T02:42:39;36.90;;;20.50;;
38513;SDS011;24282;48.400;10.808;2022-12-18T02:45:07;38.40;;;20.53;;
38513;SDS011;24282;48.400;10.808;2022-12-18T02:47:38;37.60;;;20.73;;
38513;SDS011;24282;48.400;10.808;2022-12-18T02:50:13;37.87;;;21.10;;
38513;SDS011;24282;48.400;10.808;2022-12-18T02:58:15;33.03;;;19.13;;
38513;SDS011;24282;48.400;10.808;2022-12-18T03:03:19;39.77;;;21.27;;
38513;SDS011;24282;48.400;10.808;2022-12-18T03:05:53;38.10;;;21.37;;
38513;SDS011;24282;48.400;10.808;2022-12-18T03:08:28;35.13;;;20.07;;
38513;SDS011;24282;48.400;10.808;2022-12-18T03:11:02;35.77;;;21.23;;
38513;SDS011;24282;48.400;10.808;2022-12-18T03:16:15;36.93;;;20.03;;
38513;SDS011;24282;48.400;10.808;2022-12-18T03:18:49;37.93;;;20.57;;
38513;SDS011;24282;48.400;10.808;2022-12-18T03:21:20;36.97;;;20.63;;
38513;SDS011;24282;48.400;10.808;2022-12-18T03:23:51;37.08;;;19.17;;
38513;SDS011;24282;48.400;10.808;2022-12-18T03:26:22;34.67;;;19.70;;
38513;SDS011;24282;48.400;10.808;2022-12-18T03:28:57;32.90;;;19.90;;
38513;SDS011;24282;48.400;10.808;2022-12-18T03:31:27;38.63;;;20.97;;
38513;SDS011;24282;48.400;10.808;2022-12-18T03:33:57;36.50;;;20.57;;
38513;SDS011;24282;48.400;10.808;2022-12-18T03:36:35;35.93;;;20.83;;
38513;SDS011;24282;48.400;10.808;2022-12-18T03:39:01;38.93;;;19.13;;
38513;SDS011;24282;48.400;10.808;2022-12-18T03:41:32;33.77;;;19.10;;
38513;SDS011;24282;48.400;10.808;2022-12-18T03:52:26;36.10;;;19.30;;
38513;SDS011;24282;48.400;10.808;2022-12-18T03:54:56;33.23;;;16.87;;
38513;SDS011;24282;48.400;10.808;2022-12-18T03:57:26;34.97;;;18.97;;
38513;SDS011;24282;48.400;10.808;2022-12-18T04:00:18;32.97;;;18.70;;
38513;SDS011;24282;48.400;10.808;2022-12-18T04:03:01;32.40;;;17.70;;
38513;SDS011;24282;48.400;10.808;2022-12-18T04:05:35;36.03;;;19.00;;
38513;SDS011;24282;48.400;10.808;2022-12-18T04:08:02;31.50;;;17.97;;
38513;SDS011;24282;48.400;10.808;2022-12-18T04:10:31;32.83;;;18.50;;
38513;SDS011;24282;48.400;10.808;2022-12-18T04:12:58;32.33;;;17.57;;
38513;SDS011;24282;48.400;10.808;2022-12-18T04:15:24;35.70;;;18.53;;
38513;SDS011;24282;48.400;10.808;2022-12-18T04:17:51;30.90;;;16.90;;
38513;SDS011;24282;48.400;10.808;2022-12-18T04:20:20;31.37;;;16.70;;
38513;SDS011;24282;48.400;10.808;2022-12-18T04:22:47;31.17;;;17.67;;
38513;SDS011;24282;48.400;10.808;2022-12-18T04:25:13;33.50;;;17.87;;
38513;SDS011;24282;48.400;10.808;2022-12-18T04:27:48;28.77;;;16.50;;
38513;SDS011;24282;48.400;10.808;2022-12-18T04:30:14;29.23;;;15.87;;
38513;SDS011;24282;48.400;10.808;2022-12-18T04:32:40;29.27;;;17.03;;
38513;SDS011;24282;48.400;10.808;2022-12-18T04:35:07;27.87;;;15.87;;
38513;SDS011;24282;48.400;10.808;2022-12-18T04:37:35;29.73;;;16.30;;
38513;SDS011;24282;48.400;10.808;2022-12-18T04:40:01;31.27;;;16.67;;
38513;SDS011;24282;48.400;10.808;2022-12-18T04:42:36;32.03;;;17.83;;
38513;SDS011;24282;48.400;10.808;2022-12-18T04:45:02;29.63;;;16.30;;
38513;SDS011;24282;48.400;10.808;2022-12-18T04:47:28;30.17;;;16.23;;
38513;SDS011;24282;48.400;10.808;2022-12-18T04:49:54;30.10;;;15.93;;
38513;SDS011;24282;48.400;10.808;2022-12-18T04:52:19;32.77;;;17.73;;
38513;SDS011;24282;48.400;10.808;2022-12-18T04:54:45;31.20;;;17.20;;
38513;SDS011;24282;48.400;10.808;2022-12-18T04:57:10;29.53;;;15.83;;
38513;SDS011;24282;48.400;10.808;2022-12-18T04:59:36;31.83;;;16.90;;
38513;SDS011;24282;48.400;10.808;2022-12-18T05:02:02;31.23;;;17.37;;
38513;SDS011;24282;48.400;10.808;2022-12-18T05:04:28;30.37;;;17.13;;
38513;SDS011;24282;48.400;10.808;2022-12-18T05:06:53;30.63;;;18.17;;
38513;SDS011;24282;48.400;10.808;2022-12-18T05:09:19;32.20;;;18.73;;
38513;SDS011;24282;48.400;10.808;2022-12-18T05:11:45;31.00;;;17.10;;
38513;SDS011;24282;48.400;10.808;2022-12-18T05:14:11;32.40;;;17.80;;
38513;SDS011;24282;48.400;10.808;2022-12-18T05:16:37;32.53;;;17.80;;
38513;SDS011;24282;48.400;10.808;2022-12-18T05:19:03;31.47;;;18.23;;
38513;SDS011;24282;48.400;10.808;2022-12-18T05:21:29;29.83;;;16.40;;
38513;SDS011;24282;48.400;10.808;2022-12-18T05:23:54;30.60;;;16.70;;
38513;SDS011;24282;48.400;10.808;2022-12-18T05:26:20;30.30;;;18.00;;
38513;SDS011;24282;48.400;10.808;2022-12-18T05:28:46;33.73;;;19.00;;
38513;SDS011;24282;48.400;10.808;2022-12-18T05:31:11;31.07;;;16.73;;
38513;SDS011;24282;48.400;10.808;2022-12-18T05:33:37;30.53;;;18.03;;
38513;SDS011;24282;48.400;10.808;2022-12-18T05:36:04;32.90;;;18.10;;
38513;SDS011;24282;48.400;10.808;2022-12-18T05:38:33;31.33;;;17.70;;
38513;SDS011;24282;48.400;10.808;2022-12-18T05:41:00;33.37;;;18.87;;
38513;SDS011;24282;48.400;10.808;2022-12-18T05:43:26;36.40;;;18.37;;
38513;SDS011;24282;48.400;10.808;2022-12-18T05:45:53;36.80;;;20.03;;
38513;SDS011;24282;48.400;10.808;2022-12-18T05:48:19;33.70;;;18.30;;
38513;SDS011;24282;48.400;10.808;2022-12-18T05:50:46;33.60;;;18.60;;
38513;SDS011;24282;48.400;10.808;2022-12-18T05:53:13;34.33;;;17.97;;
38513;SDS011;24282;48.400;10.808;2022-12-18T05:55:41;31.90;;;17.20;;
38513;SDS011;24282;48.400;10.808;2022-12-18T05:58:08;32.00;;;17.97;;
38513;SDS011;24282;48.400;10.808;2022-12-18T06:00:36;33.07;;;17.67;;
38513;SDS011;24282;48.400;10.808;2022-12-18T06:03:06;33.53;;;17.73;;
38513;SDS011;24282;48.400;10.808;2022-12-18T06:05:37;32.47;;;17.40;;
38513;SDS011;24282;48.400;10.808;2022-12-18T06:08:07;33.37;;;18.40;;
38513;SDS011;24282;48.400;10.808;2022-12-18T06:10:33;33.23;;;18.13;;
38513;SDS011;24282;48.400;10.808;2022-12-18T06:12:59;33.07;;;17.77;;
38513;SDS011;24282;48.400;10.808;2022-12-18T06:15:24;33.57;;;18.30;;
38513;SDS011;24282;48.400;10.808;2022-12-18T06:17:50;33.40;;;16.57;;
38513;SDS011;24282;48.400;10.808;2022-12-18T06:20:16;31.43;;;17.30;;
38513;SDS011;24282;48.400;10.808;2022-12-18T06:22:42;33.87;;;18.67;;
38513;SDS011;24282;48.400;10.808;2022-12-18T06:25:07;32.40;;;18.03;;
38513;SDS011;24282;48.400;10.808;2022-12-18T06:27:36;32.50;;;18.00;;
38513;SDS011;24282;48.400;10.808;2022-12-18T06:30:02;32.80;;;17.47;;
38513;SDS011;24282;48.400;10.808;2022-12-18T06:32:29;29.20;;;16.20;;
38513;SDS011;24282;48.400;10.808;2022-12-18T06:34:54;34.63;;;18.53;;
38513;SDS011;24282;48.400;10.808;2022-12-18T06:37:20;33.73;;;18.43;;
38513;SDS011;24282;48.400;10.808;2022-12-18T06:39:46;37.93;;;19.97;;
38513;SDS011;24282;48.400;10.808;2022-12-18T06:42:12;37.70;;;20.03;;
38513;SDS011;24282;48.400;10.808;2022-12-18T06:44:38;32.23;;;18.00;;
38513;SDS011;24282;48.400;10.808;2022-12-18T06:47:03;32.77;;;17.57;;
38513;SDS011;24282;48.400;10.808;2022-12-18T06:49:29;34.47;;;18.33;;
38513;SDS011;24282;48.400;10.808;2022-12-18T06:51:55;35.80;;;18.23;;
38513;SDS011;24282;48.400;10.808;2022-12-18T06:54:20;33.43;;;17.93;;
38513;SDS011;24282;48.400;10.808;2022-12-18T06:56:46;32.73;;;18.57;;
38513;SDS011;24282;48.400;10.808;2022-12-18T06:59:13;36.20;;;19.43;;
38513;SDS011;24282;48.400;10.808;2022-12-18T07:01:39;35.40;;;20.03;;
38513;SDS011;24282;48.400;10.808;2022-12-18T07:04:05;35.10;;;19.83;;
38513;SDS011;24282;48.400;10.808;2022-12-18T07:06:31;32.03;;;18.37;;
38513;SDS011;24282;48.400;10.808;2022-12-18T07:08:57;36.13;;;19.73;;
38513;SDS011;24282;48.400;10.808;2022-12-18T07:11:23;37.23;;;20.80;;
38513;SDS011;24282;48.400;10.808;2022-12-18T07:13:49;41.00;;;20.23;;
38513;SDS011;24282;48.400;10.808;2022-12-18T07:16:18;32.90;;;18.67;;
38513;SDS011;24282;48.400;10.808;2022-12-18T07:18:47;34.77;;;19.13;;
38513;SDS011;24282;48.400;10.808;2022-12-18T07:21:14;33.80;;;18.93;;
38513;SDS011;24282;48.400;10.808;2022-12-18T07:23:41;33.33;;;18.00;;
38513;SDS011;24282;48.400;10.808;2022-12-18T07:26:12;33.67;;;18.53;;
38513;SDS011;24282;48.400;10.808;2022-12-18T07:28:39;31.73;;;16.67;;
38513;SDS011;24282;48.400;10.808;2022-12-18T07:31:08;31.20;;;17.40;;
38513;SDS011;24282;48.400;10.808;2022-12-18T07:33:38;32.57;;;17.60;;
38513;SDS011;24282;48.400;10.808;2022-12-18T07:36:05;37.40;;;20.60;;
38513;SDS011;24282;48.400;10.808;2022-12-18T07:38:32;38.23;;;19.13;;
38513;SDS011;24282;48.400;10.808;2022-12-18T07:41:00;34.77;;;18.70;;
38513;SDS011;24282;48.400;10.808;2022-12-18T07:43:27;33.13;;;16.63;;
38513;SDS011;24282;48.400;10.808;2022-12-18T07:45:52;28.73;;;16.33;;
38513;SDS011;24282;48.400;10.808;2022-12-18T07:48:18;31.87;;;17.40;;
38513;SDS011;24282;48.400;10.808;2022-12-18T07:50:44;32.97;;;18.07;;
38513;SDS011;24282;48.400;10.808;2022-12-18T07:53:09;34.07;;;18.67;;
38513;SDS011;24282;48.400;10.808;2022-12-18T07:55:35;31.97;;;17.43;;
38513;SDS011;24282;48.400;10.808;2022-12-18T07:58:02;30.47;;;17.47;;
38513;SDS011;24282;48.400;10.808;2022-12-18T08:00:29;31.23;;;17.70;;
38513;SDS011;24282;48.400;10.808;2022-12-18T08:02:55;31.10;;;17.60;;
38513;SDS011;24282;48.400;10.808;2022-12-18T08:05:20;30.70;;;17.37;;
38513;SDS011;24282;48.400;10.808;2022-12-18T08:07:46;29.77;;;17.07;;
38513;SDS011;24282;48.400;10.808;2022-12-18T08:10:12;26.97;;;16.27;;
38513;SDS011;24282;48.400;10.808;2022-12-18T08:12:38;25.87;;;14.97;;
38513;SDS011;24282;48.400;10.808;2022-12-18T08:15:04;32.20;;;17.10;;
38513;SDS011;24282;48.400;10.808;2022-12-18T08:17:31;32.00;;;17.70;;
38513;SDS011;24282;48.400;10.808;2022-12-18T08:19:56;30.10;;;16.77;;
38513;SDS011;24282;48.400;10.808;2022-12-18T08:22:22;32.13;;;16.87;;
38513;SDS011;24282;48.400;10.808;2022-12-18T08:24:48;30.03;;;16.70;;
38513;SDS011;24282;48.400;10.808;2022-12-18T08:27:14;27.97;;;16.30;;
38513;SDS011;24282;48.400;10.808;2022-12-18T08:29:39;27.60;;;16.10;;
38513;SDS011;24282;48.400;10.808;2022-12-18T08:32:05;32.97;;;17.47;;
38513;SDS011;24282;48.400;10.808;2022-12-18T08:34:31;31.13;;;16.70;;
38513;SDS011;24282;48.400;10.808;2022-12-18T08:36:57;27.23;;;16.23;;
38513;SDS011;24282;48.400;10.808;2022-12-18T08:39:22;30.43;;;17.20;;
38513;SDS011;24282;48.400;10.808;2022-12-18T08:41:48;31.07;;;16.97;;
38513;SDS011;24282;48.400;10.808;2022-12-18T08:44:33;25.30;;;15.00;;
38513;SDS011;24282;48.400;10.808;2022-12-18T08:47:02;28.07;;;15.90;;
38513;SDS011;24282;48.400;10.808;2022-12-18T08:49:28;29.17;;;17.73;;
38513;SDS011;24282;48.400;10.808;2022-12-18T08:51:54;26.13;;;15.23;;
38513;SDS011;24282;48.400;10.808;2022-12-18T08:54:22;26.67;;;16.70;;
38513;SDS011;24282;48.400;10.808;2022-12-18T08:56:47;29.17;;;16.73;;
38513;SDS011;24282;48.400;10.808;2022-12-18T08:59:15;29.40;;;16.63;;
38513;SDS011;24282;48.400;10.808;2022-12-18T09:01:44;27.97;;;17.07;;
38513;SDS011;24282;48.400;10.808;2022-12-18T09:04:10;26.67;;;16.63;;
38513;SDS011;24282;48.400;10.808;2022-12-18T09:06:37;32.23;;;17.20;;
38513;SDS011;24282;48.400;10.808;2022-12-18T09:09:03;30.57;;;17.00;;
38513;SDS011;24282;48.400;10.808;2022-12-18T09:11:29;26.47;;;15.60;;
38513;SDS011;24282;48.400;10.808;2022-12-18T09:13:56;30.33;;;16.90;;
38513;SDS011;24282;48.400;10.808;2022-12-18T09:16:23;30.20;;;15.80;;
38513;SDS011;24282;48.400;10.808;2022-12-18T09:18:49;29.07;;;16.63;;
38513;SDS011;24282;48.400;10.808;2022-12-18T09:21:16;28.40;;;16.20;;
38513;SDS011;24282;48.400;10.808;2022-12-18T09:23:44;30.93;;;16.97;;
38513;SDS011;24282;48.400;10.808;2022-12-18T09:26:15;27.33;;;15.37;;
38513;SDS011;24282;48.400;10.808;2022-12-18T09:28:41;25.03;;;16.27;;
38513;SDS011;24282;48.400;10.808;2022-12-18T09:31:07;30.00;;;16.33;;
38513;SDS011;24282;48.400;10.808;2022-12-18T09:33:35;31.50;;;17.73;;
38513;SDS011;24282;48.400;10.808;2022-12-18T09:36:02;30.17;;;16.67;;
38513;SDS011;24282;48.400;10.808;2022-12-18T09:38:29;26.30;;;16.60;;
38513;SDS011;24282;48.400;10.808;2022-12-18T09:41:05;29.53;;;17.03;;
38513;SDS011;24282;48.400;10.808;2022-12-18T09:43:47;27.97;;;17.03;;
38513;SDS011;24282;48.400;10.808;2022-12-18T09:46:22;28.90;;;16.70;;
38513;SDS011;24282;48.400;10.808;2022-12-18T09:48:52;27.87;;;16.80;;
38513;SDS011;24282;48.400;10.808;2022-12-18T09:51:26;25.93;;;15.90;;
38513;SDS011;24282;48.400;10.808;2022-12-18T09:54:13;29.97;;;17.90;;
38513;SDS011;24282;48.400;10.808;2022-12-18T09:56:43;26.37;;;16.83;;
38513;SDS011;24282;48.400;10.808;2022-12-18T09:59:20;28.77;;;17.30;;
38513;SDS011;24282;48.400;10.808;2022-12-18T10:01:51;31.10;;;18.77;;
38513;SDS011;24282;48.400;10.808;2022-12-18T10:04:17;31.10;;;18.37;;
38513;SDS011;24282;48.400;10.808;2022-12-18T10:06:46;30.63;;;17.60;;
38513;SDS011;24282;48.400;10.808;2022-12-18T10:11:45;25.67;;;14.87;;
38513;SDS011;24282;48.400;10.808;2022-12-18T10:14:23;28.43;;;16.37;;
38513;SDS011;24282;48.400;10.808;2022-12-18T10:19:43;26.77;;;15.73;;
38513;SDS011;24282;48.400;10.808;2022-12-18T10:27:30;27.30;;;16.40;;
38513;SDS011;24282;48.400;10.808;2022-12-18T10:29:56;30.63;;;17.17;;
38513;SDS011;24282;48.400;10.808;2022-12-18T10:32:24;29.53;;;16.57;;
38513;SDS011;24282;48.400;10.808;2022-12-18T10:34:52;28.07;;;17.53;;
38513;SDS011;24282;48.400;10.808;2022-12-18T10:37:23;29.33;;;16.63;;
38513;SDS011;24282;48.400;10.808;2022-12-18T10:43:05;30.00;;;17.50;;
38513;SDS011;24282;48.400;10.808;2022-12-18T10:45:36;29.93;;;17.13;;
38513;SDS011;24282;48.400;10.808;2022-12-18T10:48:02;28.43;;;15.80;;
38513;SDS011;24282;48.400;10.808;2022-12-18T10:50:30;29.87;;;17.57;;
38513;SDS011;24282;48.400;10.808;2022-12-18T10:52:59;31.00;;;17.57;;
38513;SDS011;24282;48.400;10.808;2022-12-18T10:55:44;32.57;;;18.93;;
38513;SDS011;24282;48.400;10.808;2022-12-18T10:58:24;28.73;;;17.43;;
38513;SDS011;24282;48.400;10.808;2022-12-18T11:06:06;29.23;;;17.00;;
38513;SDS011;24282;48.400;10.808;2022-12-18T11:08:33;30.57;;;18.10;;
38513;SDS011;24282;48.400;10.808;2022-12-18T11:11:00;33.93;;;19.23;;
38513;SDS011;24282;48.400;10.808;2022-12-18T11:13:26;31.30;;;17.97;;
38513;SDS011;24282;48.400;10.808;2022-12-18T11:15:54;27.87;;;17.53;;
38513;SDS011;24282;48.400;10.808;2022-12-18T11:18:30;29.13;;;17.60;;
38513;SDS011;24282;48.400;10.808;2022-12-18T11:21:05;29.40;;;17.47;;
38513;SDS011;24282;48.400;10.808;2022-12-18T11:23:33;29.73;;;17.47;;
38513;SDS011;24282;48.400;10.808;2022-12-18T11:26:04;30.63;;;18.03;;
38513;SDS011;24282;48.400;10.808;2022-12-18T11:33:41;31.73;;;18.33;;
38513;SDS011;24282;48.400;10.808;2022-12-18T11:36:11;29.83;;;18.53;;
38513;SDS011;24282;48.400;10.808;2022-12-18T11:38:39;31.87;;;19.47;;
38513;SDS011;24282;48.400;10.808;2022-12-18T11:41:10;31.00;;;18.50;;
38513;SDS011;24282;48.400;10.808;2022-12-18T11:43:48;33.53;;;19.35;;
38513;SDS011;24282;48.400;10.808;2022-12-18T11:46:55;30.67;;;18.23;;
38513;SDS011;24282;48.400;10.808;2022-12-18T11:49:22;28.87;;;17.77;;
38513;SDS011;24282;48.400;10.808;2022-12-18T11:54:46;34.47;;;19.27;;
38513;SDS011;24282;48.400;10.808;2022-12-18T12:11:04;29.30;;;17.60;;
38513;SDS011;24282;48.400;10.808;2022-12-18T12:21:52;30.90;;;18.40;;
38513;SDS011;24282;48.400;10.808;2022-12-18T12:27:35;25.88;;;17.17;;
38513;SDS011;24282;48.400;10.808;2022-12-18T12:30:18;33.30;;;18.83;;
38513;SDS011;24282;48.400;10.808;2022-12-18T12:37:49;29.80;;;16.97;;
38513;SDS011;24282;48.400;10.808;2022-12-18T12:40:32;31.00;;;18.00;;
38513;SDS011;24282;48.400;10.808;2022-12-18T12:43:22;30.43;;;18.30;;
38513;SDS011;24282;48.400;10.808;2022-12-18T12:51:18;33.80;;;19.40;;
38513;SDS011;24282;48.400;10.808;2022-12-18T12:53:50;32.97;;;19.17;;
38513;SDS011;24282;48.400;10.808;2022-12-18T12:56:18;29.87;;;19.60;;
38513;SDS011;24282;48.400;10.808;2022-12-18T12:58:57;28.47;;;17.17;;
38513;SDS011;24282;48.400;10.808;2022-12-18T13:04:20;31.30;;;18.87;;
38513;SDS011;24282;48.400;10.808;2022-12-18T13:06:52;29.80;;;19.37;;
38513;SDS011;24282;48.400;10.808;2022-12-18T13:09:24;26.80;;;17.73;;
38513;SDS011;24282;48.400;10.808;2022-12-18T13:11:50;30.07;;;17.17;;
38513;SDS011;24282;48.400;10.808;2022-12-18T13:14:35;33.17;;;19.93;;
38513;SDS011;24282;48.400;10.808;2022-12-18T13:19:48;29.27;;;17.33;;
38513;SDS011;24282;48.400;10.808;2022-12-18T13:22:38;28.87;;;17.13;;
38513;SDS011;24282;48.400;10.808;2022-12-18T13:36:02;27.47;;;17.17;;
38513;SDS011;24282;48.400;10.808;2022-12-18T13:38:46;31.47;;;17.40;;
38513;SDS011;24282;48.400;10.808;2022-12-18T13:43:47;28.67;;;16.20;;
38513;SDS011;24282;48.400;10.808;2022-12-18T13:51:23;27.60;;;16.30;;
38513;SDS011;24282;48.400;10.808;2022-12-18T13:53:51;29.40;;;17.03;;
38513;SDS011;24282;48.400;10.808;2022-12-18T13:56:31;30.70;;;17.80;;
38513;SDS011;24282;48.400;10.808;2022-12-18T13:59:06;27.40;;;17.30;;
38513;SDS011;24282;48.400;10.808;2022-12-18T14:01:35;29.20;;;17.10;;
38513;SDS011;24282;48.400;10.808;2022-12-18T14:07:05;30.73;;;16.67;;
38513;SDS011;24282;48.400;10.808;2022-12-18T14:09:43;30.00;;;16.80;;
38513;SDS011;24282;48.400;10.808;2022-12-18T14:12:21;27.87;;;16.00;;
38513;SDS011;24282;48.400;10.808;2022-12-18T14:15:50;31.27;;;19.17;;
38513;SDS011;24282;48.400;10.808;2022-12-18T14:20:40;31.43;;;18.60;;
38513;SDS011;24282;48.400;10.808;2022-12-18T14:26:19;28.27;;;17.27;;
38513;SDS011;24282;48.400;10.808;2022-12-18T14:28:52;32.87;;;18.90;;
38513;SDS011;24282;48.400;10.808;2022-12-18T14:31:23;30.10;;;18.53;;
38513;SDS011;24282;48.400;10.808;2022-12-18T14:33:50;36.13;;;20.30;;
38513;SDS011;24282;48.400;10.808;2022-12-18T14:36:18;31.13;;;17.70;;
38513;SDS011;24282;48.400;10.808;2022-12-18T14:38:49;26.90;;;16.73;;
38513;SDS011;24282;48.400;10.808;2022-12-18T14:41:17;30.00;;;18.23;;
38513;SDS011;24282;48.400;10.808;2022-12-18T14:43:45;27.83;;;16.47;;
38513;SDS011;24282;48.400;10.808;2022-12-18T14:49:04;28.13;;;16.70;;
38513;SDS011;24282;48.400;10.808;2022-12-18T14:51:53;28.43;;;17.17;;
38513;SDS011;24282;48.400;10.808;2022-12-18T14:54:20;32.07;;;18.40;;
38513;SDS011;24282;48.400;10.808;2022-12-18T14:57:35;30.90;;;17.47;;
38513;SDS011;24282;48.400;10.808;2022-12-18T14:59:45;27.90;;;15.90;;
38513;SDS011;24282;48.400;10.808;2022-12-18T15:02:21;26.50;;;16.10;;
38513;SDS011;24282;48.400;10.808;2022-12-18T15:05:14;27.53;;;15.63;;
38513;SDS011;24282;48.400;10.808;2022-12-18T15:07:44;28.40;;;16.45;;
38513;SDS011;24282;48.400;10.808;2022-12-18T15:10:15;26.90;;;16.03;;
38513;SDS011;24282;48.400;10.808;2022-12-18T15:20:46;30.00;;;17.50;;
38513;SDS011;24282;48.400;10.808;2022-12-18T15:26:13;31.67;;;16.67;;
38513;SDS011;24282;48.400;10.808;2022-12-18T15:28:58;29.37;;;16.57;;
38513;SDS011;24282;48.400;10.808;2022-12-18T15:31:29;27.30;;;16.67;;
38513;SDS011;24282;48.400;10.808;2022-12-18T15:36:23;31.20;;;18.17;;
38513;SDS011;24282;48.400;10.808;2022-12-18T15:38:54;28.50;;;16.40;;
38513;SDS011;24282;48.400;10.808;2022-12-18T15:41:21;30.10;;;16.93;;
38513;SDS011;24282;48.400;10.808;2022-12-18T15:43:48;29.70;;;16.50;;
38513;SDS011;24282;48.400;10.808;2022-12-18T15:46:16;28.53;;;16.40;;
38513;SDS011;24282;48.400;10.808;2022-12-18T15:48:43;29.73;;;16.90;;
38513;SDS011;24282;48.400;10.808;2022-12-18T15:51:23;32.80;;;18.80;;
38513;SDS011;24282;48.400;10.808;2022-12-18T15:53:54;31.70;;;17.50;;
38513;SDS011;24282;48.400;10.808;2022-12-18T15:56:22;32.13;;;17.60;;
38513;SDS011;24282;48.400;10.808;2022-12-18T15:59:10;28.63;;;16.40;;
38513;SDS011;24282;48.400;10.808;2022-12-18T16:01:38;33.40;;;18.77;;
38513;SDS011;24282;48.400;10.808;2022-12-18T16:04:04;34.23;;;18.30;;
38513;SDS011;24282;48.400;10.808;2022-12-18T16:06:30;34.63;;;19.00;;
38513;SDS011;24282;48.400;10.808;2022-12-18T16:08:56;35.90;;;19.20;;
38513;SDS011;24282;48.400;10.808;2022-12-18T16:11:26;35.00;;;19.83;;
38513;SDS011;24282;48.400;10.808;2022-12-18T16:16:37;37.00;;;21.30;;
38513;SDS011;24282;48.400;10.808;2022-12-18T16:19:02;38.57;;;21.27;;
38513;SDS011;24282;48.400;10.808;2022-12-18T16:21:28;37.90;;;21.70;;
38513;SDS011;24282;48.400;10.808;2022-12-18T16:23:54;40.77;;;21.73;;
38513;SDS011;24282;48.400;10.808;2022-12-18T16:26:20;40.40;;;23.37;;
38513;SDS011;24282;48.400;10.808;2022-12-18T16:28:45;42.97;;;23.93;;
38513;SDS011;24282;48.400;10.808;2022-12-18T16:31:11;40.13;;;22.00;;
38513;SDS011;24282;48.400;10.808;2022-12-18T16:33:37;36.73;;;20.93;;
38513;SDS011;24282;48.400;10.808;2022-12-18T16:36:02;41.60;;;23.73;;
38513;SDS011;24282;48.400;10.808;2022-12-18T16:38:28;40.80;;;23.57;;
38513;SDS011;24282;48.400;10.808;2022-12-18T16:40:54;38.17;;;20.23;;
38513;SDS011;24282;48.400;10.808;2022-12-18T16:43:38;39.70;;;21.10;;
38513;SDS011;24282;48.400;10.808;2022-12-18T16:46:04;39.63;;;21.90;;
38513;SDS011;24282;48.400;10.808;2022-12-18T16:48:30;38.10;;;21.87;;
38513;SDS011;24282;48.400;10.808;2022-12-18T16:51:02;39.63;;;23.20;;